Aviation Digital Data Service (ADDS)

Output produced by METARs form (1115 UTC 24 April 2017)
found at http://www.aviationweather.gov/adds/metars/
 
KTCC 240530Z 2406/2506 21019G26KT P6SM SCT250 
     FM240900 19013G22KT P6SM SCT250 
     FM241500 24020G30KT P6SM FEW250 
     FM241800 26025G38KT P6SM SCT250
       
KTCL 240855Z 2409/2506 32004KT P6SM OVC008 
     FM241500 33007KT P6SM OVC015 
     FM241900 33010KT P6SM BKN035 
     FM242300 36002KT P6SM SKC
       
TAF KTCM 240500Z 2405/2511 19007KT 8000 -RA BKN025 OVC040 620509 QNH2974INS 
     BECMG 2415/2416 03009KT 8000 -SHRA OVC025 610409 QNH2972INS 
     BECMG 2420/2421 23012G18KT 8000 -SHRA SCT025 BKN035 610409 QNH2973INS 
     BECMG 2503/2504 22009KT 9999 NSW SCT025 BKN045 610509 QNH2978INS TX13/2423Z TN06/2412Z
       
KTCS 240520Z 2406/2506 25006KT P6SM FEW250 
     FM241500 21011KT P6SM SKC 
     FM241800 23022G32KT P6SM SKC 
     FM250200 25015G25KT P6SM SKC 
     FM250400 25010KT P6SM SKC
       
KTEB 240835Z 2409/2506 VRB02KT P6SM BKN250 
     FM241500 08003KT P6SM BKN150 
     FM241800 10006KT P6SM BKN100 
     FM242200 11007KT P6SM SCT050 BKN080 
     FM250300 06005KT P6SM -RA SCT015 OVC060
       
KTEX 240901Z 2409/2506 VRB03KT P6SM SCT070 OVC100 WS020/26035KT 
     FM241700 21010G21KT P6SM BKN100 
     FM242200 23015G32KT P6SM VCSH OVC080 
     FM250000 23011G27KT P6SM -SHRA OVC070
       
TAF KTIK 240900Z 2409/2515 18009KT 9999 SKC QNH2988INS 
     BECMG 2414/2415 19020G30KT 9999 SKC QNH2960INS 
     BECMG 2423/2424 19012KT 9999 SKC QNH2940INS 
     BECMG 2514/2515 19015G25KT 9999 FEW180 QNH2940INS TX24/2420Z TN08/2411Z
       
KTIX 240520Z 2406/2506 14010KT P6SM SCT020 
     FM241200 26010KT P6SM SCT030 
     TEMPO 2414/2417 BKN035 
     FM241800 28015G24KT P6SM SCT040 
     FM250000 26011KT P6SM SCT250
       
KTLH 240528Z 2406/2506 31004KT P6SM SCT050 
     FM241100 30005KT P6SM BKN030 
     FM241500 29010G15KT P6SM BKN045 
     FM242300 31006KT P6SM SKC
       
KTMB 241054Z 2411/2506 29003KT 5SM BR OVC002 
     TEMPO 2411/2413 2SM BR OVC003 
     FM241300 28010KT P6SM SCT050 SCT100 BKN250 
     FM241800 27015G25KT P6SM SCT050 BKN120 
     FM250000 27010KT P6SM FEW030 SCT250
       
KTOI 241013Z 2410/2506 31006KT P6SM BKN025 
     FM241700 32011G18KT P6SM BKN050 
     FM250100 35002KT P6SM SKC
       
KTOL 240533Z 2406/2506 VRB03KT P6SM FEW100 SCT250 
     FM241400 08010G18KT P6SM SCT100 BKN250 
     FM250100 09008KT P6SM SCT050 BKN100
       
KTOP 240520Z 2406/2506 17007KT P6SM SKC 
     FM241000 17008KT P6SM FEW250 WS020/18045KT 
     FM241400 17015G29KT P6SM FEW250 
     FM242300 18009G21KT P6SM FEW250
       
KTPA 240858Z 2409/2506 26008KT P6SM SCT015 BKN020 OVC040 
     FM241500 28012G18KT P6SM VCSH BKN025 OVC050 
     FM241900 28020G28KT P6SM SCT025 BKN050 
     FM250000 28015G21KT P6SM SCT025 SCT050 
     FM250200 29012KT P6SM SCT025
       
KTPH 240520Z 2406/2506 34012KT P6SM BKN200 
     FM241600 33015G25KT P6SM SCT100 BKN200 
     FM241800 33025G35KT P6SM SCT100 BKN200 
     FM250100 34030G45KT P6SM SCT100 BKN200
       
KTRI 240520Z 2406/2506 07009KT P6SM -SHRA OVC090 
     FM241400 07008KT 6SM -SHRA OVC070 
     FM250200 09006KT P6SM BKN050
       
KTRK 240526Z 2406/2506 22005KT P6SM SCT110 BKN180 
     FM241400 21012G20KT P6SM VCSH BKN060 OVC100 
     FM241900 24016G28KT P6SM VCSH BKN040 OVC080 
     FM250200 22011G20KT P6SM SCT040 BKN080
       
KTRM 240924Z 2409/2506 30007KT P6SM SKC 
     FM242200 30015G25KT P6SM SCT250 
     FM250200 32020G30KT P6SM SCT250
       
KTTD 241103Z 2411/2506 11006KT P6SM -RA SCT025 OVC035 
     FM241400 11006KT P6SM -RA BKN025 OVC035 
     FM241900 22008KT P6SM -SHRA BKN030 OVC040 
     FM250200 24006KT P6SM VCSH SCT015 OVC025
       
KTTN 240520Z 2406/2506 VRB03KT P6SM FEW200 
     FM241000 VRB03KT P6SM BKN150 
     FM241500 09007KT P6SM BKN150 
     FM250000 08010KT P6SM -RA OVC110 
     FM250300 08009KT 6SM -RA BR OVC030
       
KTUL 240520Z 2406/2506 VRB05KT P6SM FEW250 
     FM241500 17012G22KT P6SM SKC 
     FM250100 17012KT P6SM SCT250
       
KTUP 240520Z 2406/2506 32005KT P6SM SCT020 BKN070 
     TEMPO 2406/2410 BKN020 
     FM241000 36006KT P6SM BKN020 
     FM241800 36008KT P6SM BKN025 
     FM242100 01008KT P6SM SCT030 
     FM250000 VRB03KT P6SM SKC
       
KTUS 240526Z 2406/2506 23006KT P6SM BKN250 
     FM240900 14007KT P6SM SCT250 
     FM241600 18012G18KT P6SM FEW250 
     FM242000 25019G28KT P6SM SCT250 
     FM250300 24012G18KT P6SM SCT250
       
KTVC 240520Z 2406/2506 05004KT P6SM SCT060 BKN250 
     FM241200 12004KT P6SM SCT060 
     FM242000 16008KT P6SM FEW250 
     FM250400 14008KT P6SM SCT200
       
KTVL 240526Z 2406/2506 19008KT P6SM SCT080 OVC150 
     FM241400 19016G25KT P6SM VCSH BKN050 OVC080 
     FM242300 20013G24KT P6SM SCT050 BKN080
       
KTWF 240520Z 2406/2506 20010KT P6SM VCSH BKN120 
     TEMPO 2413/2417 6SM -SHRA BR OVC050 
     FM241700 25018G27KT 5SM -SHRA BR OVC025
       
KTXK 240526Z 2406/2506 VRB03KT P6SM SKC 
     FM241800 17006KT P6SM SKC
       
KTYR 240526Z 2406/2506 VRB04KT P6SM SKC 
     FM241700 18010KT P6SM SKC
       
KTYS 240520Z 2406/2506 02007KT P6SM OVC010 
     FM241500 02008KT P6SM OVC020 
     FM250200 02005KT P6SM BKN035